CST,Max TemperatureF,Mean TemperatureF,Min TemperatureF,Max Dew PointF,MeanDew PointF,Min DewpointF,Max Humidity, Mean Humidity, Min Humidity, Max Sea Level PressureIn, Mean Sea Level PressureIn, Min Sea Level PressureIn, Max VisibilityMiles, Mean VisibilityMiles, Min VisibilityMiles, Max Wind SpeedMPH, Mean Wind SpeedMPH, Max Gust SpeedMPH,PrecipitationIn, CloudCover, Events, WindDirDegrees
2012-11-1,55,41,27,32,26,20,90,63,34,29.93,29.88,29.82,10,10,10,17,7,20,0.00,3,,294
2012-11-2,45,36,26,32,28,24,96,74,44,30.16,30.07,29.93,10,10,10,10,6,9,0.00,0,,14
2012-11-3,46,36,27,33,31,25,94,76,58,30.23,30.18,30.13,10,9,4,13,7,,0.00,6,,49
2012-11-4,47,36,24,32,29,23,97,78,51,30.26,30.21,30.17,10,10,7,8,2,,0.00,4,,16
2012-11-5,43,33,23,33,28,23,100,83,58,30.21,30.17,30.12,10,8,2,10,4,,0.00,4,,88
2012-11-6,39,30,21,38,32,20,99,95,81,30.10,29.95,29.86,7,4,1,13,5,,0.09,6,Rain,162
2012-11-7,42,40,38,39,39,37,100,94,85,30.17,30.06,29.87,5,4,0,10,5,,0.02,8,Fog,354
2012-11-8,47,41,35,38,35,32,97,84,64,30.21,30.14,30.07,10,7,4,13,6,18,0.00,4,,187
2012-11-9,54,43,32,46,40,32,99,85,67,30.09,30.01,29.95,10,6,3,10,8,,0.00,4,,135
2012-11-10,66,58,50,56,52,48,94,77,64,29.94,29.88,29.83,10,9,7,31,15,39,0.05,3,Rain-Thunderstorm,167
2012-11-11,68,51,34,56,48,32,97,79,60,29.98,29.84,29.69,10,9,3,39,21,52,0.30,6,Rain,204
2012-11-12,33,28,24,32,24,19,93,77,69,30.35,30.16,29.97,10,10,7,25,18,31,0.00,6,,268
2012-11-13,38,28,17,27,22,16,95,79,54,30.50,30.45,30.36,10,10,10,9,6,,0.00,0,,234
2012-11-14,45,36,27,30,28,25,92,80,53,30.49,30.43,30.36,10,10,10,17,8,18,0.00,2,,159
2012-11-15,49,38,26,32,29,25,96,81,45,30.37,30.34,30.30,10,9,5,10,6,,0.00,0,,170
2012-11-16,52,38,24,36,30,23,96,78,47,30.47,30.43,30.36,10,9,7,9,4,,0.00,0,,151
2012-11-17,53,40,26,34,30,24,92,77,45,30.52,30.47,30.43,10,7,4,12,5,,0.00,0,,145
2012-11-18,54,40,27,37,33,26,96,78,47,30.42,30.36,30.30,10,8,3,12,7,17,0.00,0,,145
2012-11-19,56,48,39,42,39,34,84,74,54,30.30,30.19,30.09,10,10,7,13,9,,0.00,3,Rain,169
2012-11-20,57,44,32,47,42,32,100,84,66,30.19,30.12,30.08,10,5,0,10,3,,0.00,5,Fog-Rain-Snow,317
2012-11-21,55,43,31,50,40,32,100,93,64,30.23,30.16,30.07,10,3,0,17,5,,0.00,4,Fog-Rain,196
2012-11-22,62,50,37,50,43,32,97,82,53,30.06,29.90,29.77,10,7,2,28,14,33,0.01,2,Rain-Thunderstorm,203
2012-11-23,37,32,26,32,21,16,88,69,60,30.24,30.10,29.93,10,10,10,34,20,41,0.00,6,,295
2012-11-24,32,28,24,23,19,16,76,69,57,30.26,30.15,29.94,10,10,10,15,9,17,0.00,6,,261
2012-11-25,43,32,20,26,24,19,93,69,46,30.09,29.93,29.84,10,10,10,14,8,,0.00,2,,281
2012-11-26,33,25,17,24,20,11,91,75,56,30.39,30.25,30.09,10,10,10,12,6,,0.00,2,,336
2012-11-27,32,21,10,18,13,8,88,66,43,30.42,30.33,30.24,10,10,10,10,4,,0.00,2,,225
2012-11-28,44,30,15,24,20,13,91,69,39,30.38,30.31,30.24,10,10,10,12,6,10,0.00,1,,221
2012-11-29,51,38,25,34,30,22,92,72,47,30.25,30.14,30.06,10,9,5,14,9,18,0.00,2,,168
2012-11-30,53,42,30,36,33,29,99,75,49,30.14,30.08,30.03,10,9,2,13,7,,0.00,2,,84